Time;durP1;ratioP1;P1;durP2;ratioP2;P2;SDS_P1;SDS_P2;PMS_P1;PMS_P2;Temp;Humidity;BMP_temperature;BMP_pressure;BME280_temperature;BME280_humidity;BME280_pressure;Samples;Min_cycle;Max_cycle;Signal;HPM_P1;HPM_P2
2022/01/02 00:01:16;;;;;;;8.40;4.25;;;;;;;10.52;80.24;101747.09;4921959;29;20032;-78
2022/01/02 00:07:24;;;;;;;6.80;4.18;;;;;;;10.58;80.17;101744.94;4948369;28;20031;-78
2022/01/02 00:10:32;;;;;;;;;;;;;;;;;;;;;
2022/01/02 00:13:29;;;;;;;;;;;;;;;;;;;;;
2022/01/02 00:16:11;;;;;;;7.32;4.22;;;;;;;10.63;79.42;101792.16;4971474;28;20031;-78
2022/01/02 00:22:35;;;;;;;8.73;4.97;;;;;;;10.64;79.80;101788.63;4928788;28;20069;-78
2022/01/02 00:25:25;;;;;;;8.13;4.45;;;;;;;10.74;79.47;101798.41;4979027;28;20030;-78
2022/01/02 00:28:08;;;;;;;8.68;4.40;;;;;;;10.69;79.26;101795.28;4959402;28;20023;-77
2022/01/02 00:34:27;;;;;;;8.93;4.43;;;;;;;10.61;81.30;101768.09;4884287;28;20049;-78
2022/01/02 00:37:09;;;;;;;9.60;4.70;;;;;;;10.54;81.22;101760.78;4974945;28;20033;-78
2022/01/02 00:39:58;;;;;;;;;;;;;;;;;;;;;
2022/01/02 00:42:58;;;;;;;7.53;4.32;;;;;;;10.64;81.84;101760.06;4972077;28;20034;-78
2022/01/02 00:45:33;;;;;;;9.20;4.75;;;;;;;10.50;82.41;101739.44;4966836;28;20038;-78
2022/01/02 00:48:19;;;;;;;10.27;4.68;;;;;;;10.62;82.01;101769.75;4982570;28;20022;-78
2022/01/02 00:51:46;;;;;;;;;;;;;;;;;;;;;
2022/01/02 00:54:34;;;;;;;9.10;4.70;;;;;;;10.44;82.56;101755.41;4886604;28;20036;-78
2022/01/02 00:57:28;;;;;;;9.75;4.57;;;;;;;10.42;83.23;101746.88;4981769;28;20030;-78
2022/01/02 01:00:18;;;;;;;11.30;5.35;;;;;;;10.52;83.88;101763.50;4929375;28;20371;-79
2022/01/02 01:07:05;;;;;;;10.13;5.03;;;;;;;10.48;84.43;101764.63;4910399;29;20415;-79
2022/01/02 01:09:46;;;;;;;10.73;4.80;;;;;;;10.33;84.01;101742.31;4905378;29;20037;-79
2022/01/02 01:12:27;;;;;;;9.68;5.03;;;;;;;10.35;85.00;101737.84;4894968;29;20051;-79
2022/01/02 01:15:10;;;;;;;9.57;5.22;;;;;;;10.26;85.08;101730.66;4895821;29;20489;-78
2022/01/02 01:17:58;;;;;;;9.30;5.25;;;;;;;10.34;85.87;101739.59;4967054;28;20050;-79
2022/01/02 01:20:54;;;;;;;;;;;;;;;;;;;;;
2022/01/02 01:27:08;;;;;;;10.63;5.70;;;;;;;10.26;86.46;101712.50;4925956;28;20063;-80
2022/01/02 01:29:50;;;;;;;8.60;4.38;;;;;;;10.20;86.61;101721.50;4964499;28;20046;-80
2022/01/02 01:32:31;;;;;;;9.82;5.07;;;;;;;10.23;86.60;101716.16;4939718;29;20043;-80
2022/01/02 01:35:18;;;;;;;11.07;5.22;;;;;;;10.20;86.32;101699.94;4918704;29;20071;-80
2022/01/02 01:38:21;;;;;;;;;;;;;;;;;;;;;
2022/01/02 01:41:47;;;;;;;10.57;4.95;;;;;;;10.24;86.15;101685.88;4933318;29;20039;-79
2022/01/02 01:44:40;;;;;;;9.63;4.95;;;;;;;10.15;86.69;101691.63;4870149;29;20093;-80
2022/01/02 01:47:49;;;;;;;10.90;5.05;;;;;;;10.14;87.20;101672.66;4934653;29;20542;-79
2022/01/02 01:50:40;;;;;;;;;;;;;;;10.38;85.41;101688.38;4916443;29;20032;-79
2022/01/02 01:53:22;;;;;;;10.50;5.07;;;;;;;10.19;87.25;101678.34;4919545;29;20155;-79
2022/01/02 01:56:58;;;;;;;;;;;;;;;;;;;;;
2022/01/02 02:00:17;;;;;;;;;;;;;;;;;;;;;
2022/01/02 02:03:09;;;;;;;9.20;5.07;;;;;;;10.11;87.84;101640.00;4904893;29;20032;-78
2022/01/02 02:05:55;;;;;;;9.65;5.00;;;;;;;10.09;87.87;101639.28;4920091;29;20081;-80
2022/01/02 02:12:07;;;;;;;10.63;5.05;;;;;;;10.20;87.44;101638.53;4982864;28;20041;-80
2022/01/02 02:14:51;;;;;;;9.65;5.00;;;;;;;10.09;87.71;101621.13;4987730;28;20038;-80
2022/01/02 02:17:33;;;;;;;11.23;5.10;;;;;;;10.15;88.09;101619.88;4966821;28;20042;-80
2022/01/02 02:20:53;;;;;;;;;;;;;;;;;;;;;
2022/01/02 02:23:24;;;;;;;11.52;5.65;;;;;;;10.17;88.22;101618.00;4990608;28;20040;-79
2022/01/02 02:29:59;;;;;;;;;;;;;;;;;;;;;
2022/01/02 02:32:44;;;;;;;10.43;5.32;;;;;;;10.20;88.11;101601.41;4974534;28;20031;-79
2022/01/02 02:35:59;;;;;;;9.57;4.93;;;;;;;10.34;87.53;101624.69;4972550;28;20390;-79
2022/01/02 02:38:49;;;;;;;11.45;4.65;;;;;;;10.29;87.54;101611.19;4972479;28;20041;-79
2022/01/02 02:41:44;;;;;;;;;;;;;;;;;;;;;
2022/01/02 02:44:57;;;;;;;9.63;5.05;;;;;;;10.36;87.99;101599.47;4983145;28;20145;-80
2022/01/02 02:54:06;;;;;;;;;;;;;;;;;;;;;
2022/01/02 02:56:56;;;;;;;12.70;4.90;;;;;;;10.24;87.52;101558.84;4976529;28;20055;-79
2022/01/02 02:59:45;;;;;;;12.13;5.10;;;;;;;10.26;87.67;101555.19;4961326;28;20047;-79
2022/01/02 03:02:49;;;;;;;;;;;;;;;;;;;;;
2022/01/02 03:05:48;;;;;;;;;;;;;;;;;;;;;
2022/01/02 03:15:26;;;;;;;;;;;;;;;;;;;;;
2022/01/02 03:18:39;;;;;;;11.43;4.75;;;;;;;10.59;86.78;101593.53;4933201;29;20032;-78
2022/01/02 03:21:36;;;;;;;14.60;4.70;;;;;;;10.55;86.56;101581.72;4927415;28;20054;-79
2022/01/02 03:24:52;;;;;;;;;;;;;;;;;;;;;
2022/01/02 03:28:03;;;;;;;11.18;4.75;;;;;;;10.63;87.87;101589.78;4874930;29;20505;-79
2022/01/02 03:31:29;;;;;;;;;;;;;;;;;;;;;
2022/01/02 03:37:58;;;;;;;;;;;;;;;;;;;;;
2022/01/02 03:40:27;;;;;;;11.75;4.85;;;;;;;10.41;87.76;101558.50;4971245;28;20122;-79
2022/01/02 03:43:09;;;;;;;12.57;5.22;;;;;;;10.52;88.28;101576.75;4958089;28;20121;-80
2022/01/02 03:46:10;;;;;;;10.50;4.85;;;;;;;10.37;88.34;101551.84;4968047;28;20530;-79
2022/01/02 03:49:01;;;;;;;;;;;;;;;;;;;;;
2022/01/02 03:54:48;;;;;;;;;;;;;;;;;;;;;
2022/01/02 03:59:43;;;;;;;;;;;;;;;10.53;88.43;101557.66;4997911;28;20042;-67
2022/01/02 04:02:08;;;;;;;11.50;4.65;;;;;;;10.40;88.29;101546.47;5009147;28;20281;-67
2022/01/02 04:04:34;;;;;;;11.68;4.90;;;;;;;10.36;88.63;101535.47;5004143;28;20485;-67
2022/01/02 04:06:59;;;;;;;12.10;5.22;;;;;;;10.35;89.05;101531.22;5010850;28;20033;-66
2022/01/02 04:09:24;;;;;;;12.60;5.03;;;;;;;10.31;88.84;101526.34;4987133;28;20934;-66
2022/01/02 04:11:50;;;;;;;12.68;5.45;;;;;;;10.30;89.38;101524.69;5004517;28;20064;-66
2022/01/02 04:14:15;;;;;;;12.80;5.20;;;;;;;10.34;88.86;101526.16;4998457;28;20451;-67
2022/01/02 04:16:40;;;;;;;12.20;5.07;;;;;;;10.32;89.12;101533.19;5003847;28;20116;-74
2022/01/02 04:19:06;;;;;;;12.73;5.32;;;;;;;10.31;88.74;101523.75;5003789;28;20458;-68
2022/01/02 04:21:31;;;;;;;13.38;5.05;;;;;;;10.30;89.13;101530.72;5010813;28;20026;-67
2022/01/02 04:23:57;;;;;;;13.80;5.38;;;;;;;10.30;89.11;101527.28;4990867;28;20359;-67
2022/01/02 04:26:22;;;;;;;12.65;5.20;;;;;;;10.29;89.74;101525.66;4992574;28;20381;-67
2022/01/02 04:28:48;;;;;;;11.27;4.70;;;;;;;10.32;89.42;101528.00;5011028;28;20400;-67
2022/01/02 04:31:13;;;;;;;12.52;4.90;;;;;;;10.32;89.41;101522.81;4988263;28;20053;-70
2022/01/02 04:33:39;;;;;;;10.05;4.65;;;;;;;10.34;89.48;101510.59;4992354;28;20034;-71
2022/01/02 04:36:04;;;;;;;11.02;4.60;;;;;;;10.34;89.15;101506.25;5002634;28;20532;-67
2022/01/02 04:38:30;;;;;;;10.88;4.43;;;;;;;10.37;89.74;101505.19;4993494;28;20550;-67
2022/01/02 04:40:56;;;;;;;10.20;4.95;;;;;;;10.38;88.80;101501.69;5007864;28;20104;-67
2022/01/02 04:43:21;;;;;;;11.43;4.68;;;;;;;10.38;89.34;101501.69;4994963;28;20462;-67
2022/01/02 04:45:47;;;;;;;12.00;4.63;;;;;;;10.37;89.16;101489.63;5009819;28;20381;-69
2022/01/02 04:48:12;;;;;;;10.05;4.63;;;;;;;10.35;89.54;101483.72;5000347;28;20116;-67
2022/01/02 04:50:38;;;;;;;11.65;4.80;;;;;;;10.34;89.00;101484.66;5006729;28;20470;-69
2022/01/02 04:53:03;;;;;;;9.95;4.38;;;;;;;10.28;89.94;101475.56;4991495;28;20061;-67
2022/01/02 04:55:29;;;;;;;13.38;5.22;;;;;;;10.33;89.42;101464.88;4992073;28;20025;-68
2022/01/02 04:57:54;;;;;;;10.43;4.55;;;;;;;10.31;89.51;101453.75;4984618;28;20393;-68
2022/01/02 05:00:19;;;;;;;10.27;4.75;;;;;;;10.29;89.42;101450.47;5007109;28;20045;-67
2022/01/02 05:02:45;;;;;;;11.05;4.55;;;;;;;10.29;89.23;101447.88;4996960;28;20397;-67
2022/01/02 05:05:10;;;;;;;11.93;4.95;;;;;;;10.26;89.71;101448.06;5005349;28;20032;-67
2022/01/02 05:07:36;;;;;;;11.10;4.90;;;;;;;10.21;89.49;101434.59;4998999;28;20109;-68
2022/01/02 05:10:01;;;;;;;12.20;4.90;;;;;;;10.21;89.18;101432.00;5009109;28;20393;-67
2022/01/02 05:12:26;;;;;;;11.52;5.00;;;;;;;10.23;89.34;101430.13;5005404;28;20524;-67
2022/01/02 05:14:53;;;;;;;10.95;4.75;;;;;;;10.19;89.61;101433.84;4993054;28;20463;-67
2022/01/02 05:17:18;;;;;;;9.77;4.82;;;;;;;10.17;89.78;101426.19;4993025;28;20056;-67
2022/01/02 05:19:44;;;;;;;12.40;5.38;;;;;;;10.17;89.52;101421.00;4996519;28;20117;-67
2022/01/02 05:22:09;;;;;;;11.57;5.07;;;;;;;10.13;90.30;101408.38;4976646;28;20034;-68
2022/01/02 05:24:35;;;;;;;13.05;5.00;;;;;;;10.10;89.45;101399.88;5011927;28;20030;-67
2022/01/02 05:27:00;;;;;;;11.32;5.18;;;;;;;10.14;89.66;101404.81;5002224;28;20394;-67
2022/01/02 05:29:25;;;;;;;10.02;4.60;;;;;;;10.15;89.67;101402.16;5007038;28;20492;-67
2022/01/02 05:31:51;;;;;;;10.90;4.70;;;;;;;10.08;89.67;101386.19;5008609;28;20018;-67
2022/01/02 05:34:17;;;;;;;10.07;5.35;;;;;;;10.10;90.42;101389.50;5009264;28;20040;-67
2022/01/02 05:36:48;;;;;;;9.75;5.03;;;;;;;10.10;89.38;101380.91;4991148;28;20048;-67
2022/01/02 05:39:15;;;;;;;9.77;5.07;;;;;;;10.09;90.33;101387.84;4999450;28;20038;-67
2022/01/02 05:41:41;;;;;;;11.32;5.35;;;;;;;10.10;89.29;101391.28;5009340;28;20092;-67
2022/01/02 05:44:06;;;;;;;11.43;4.78;;;;;;;10.10;90.08;101384.31;4991623;28;20482;-68
2022/01/02 05:46:31;;;;;;;13.23;4.85;;;;;;;10.09;89.98;101382.69;5010275;28;20054;-67
2022/01/02 05:48:57;;;;;;;10.73;4.88;;;;;;;10.07;90.44;101368.97;5009521;28;20121;-67
2022/01/02 05:51:22;;;;;;;12.23;4.72;;;;;;;10.07;89.86;101379.34;4975931;28;20030;-67
2022/01/02 05:53:47;;;;;;;12.75;4.88;;;;;;;10.07;89.65;101361.19;4979325;28;20050;-67
2022/01/02 05:56:13;;;;;;;9.15;4.50;;;;;;;10.05;90.07;101354.47;4981991;28;20033;-67
2022/01/02 05:58:38;;;;;;;10.57;4.80;;;;;;;10.07;89.83;101342.22;5006810;28;20383;-67
2022/01/02 06:01:03;;;;;;;8.52;4.80;;;;;;;10.02;90.42;101334.78;4983518;28;20158;-67
2022/01/02 06:03:29;;;;;;;10.77;4.85;;;;;;;10.04;90.58;101332.09;4997025;28;20153;-67
2022/01/02 06:05:54;;;;;;;8.73;4.63;;;;;;;10.02;90.19;101319.22;5013519;28;20030;-67
2022/01/02 06:08:19;;;;;;;11.07;4.88;;;;;;;10.01;89.65;101312.41;4995089;28;20473;-67
2022/01/02 06:10:45;;;;;;;9.55;4.60;;;;;;;9.99;89.80;101303.91;4989905;28;20374;-67
2022/01/02 06:13:10;;;;;;;10.68;4.63;;;;;;;10.01;90.07;101294.25;4993779;28;20491;-67
2022/01/02 06:15:35;;;;;;;9.57;4.82;;;;;;;9.99;89.92;101292.72;4988122;28;20110;-67
2022/01/02 06:18:01;;;;;;;10.25;4.35;;;;;;;10.01;90.27;101276.13;4987321;28;20359;-67
2022/01/02 06:20:27;;;;;;;12.75;4.68;;;;;;;10.01;89.43;101280.47;4975337;28;20474;-67
2022/01/02 06:22:54;;;;;;;9.55;4.85;;;;;;;10.01;90.22;101273.53;4999251;28;20048;-67
2022/01/02 06:25:19;;;;;;;10.85;4.63;;;;;;;10.03;89.04;101257.88;5003468;28;20402;-67
2022/01/02 06:27:45;;;;;;;12.20;4.82;;;;;;;10.02;89.47;101251.03;5000699;28;20092;-67
2022/01/02 06:30:10;;;;;;;9.40;4.55;;;;;;;10.04;89.02;101234.44;5001008;28;20029;-67
2022/01/02 06:32:35;;;;;;;9.45;4.45;;;;;;;10.04;89.20;101213.72;4984157;28;20022;-67
2022/01/02 06:35:01;;;;;;;8.77;4.43;;;;;;;10.05;88.88;101207.59;4992265;28;20495;-67
2022/01/02 06:37:26;;;;;;;9.88;4.63;;;;;;;10.02;88.63;101205.22;4991363;28;20573;-67
2022/01/02 06:39:51;;;;;;;12.13;4.82;;;;;;;10.02;88.84;101192.25;4981574;28;20045;-67
2022/01/02 06:42:17;;;;;;;10.05;4.20;;;;;;;10.02;89.02;101205.22;4981949;28;20042;-67
2022/01/02 06:44:42;;;;;;;7.47;4.20;;;;;;;10.01;89.15;101184.59;4975179;28;20489;-67
2022/01/02 06:47:08;;;;;;;9.15;4.30;;;;;;;10.02;88.58;101179.28;4966569;28;20062;-67
2022/01/02 06:49:33;;;;;;;9.27;4.38;;;;;;;9.96;89.08;101151.25;4992864;28;20038;-67
2022/01/02 06:51:59;;;;;;;9.55;4.25;;;;;;;9.99;88.42;101158.81;4992209;28;20030;-67
2022/01/02 06:54:24;;;;;;;11.85;4.18;;;;;;;9.98;88.52;101157.16;4992788;28;20022;-67
2022/01/02 06:56:50;;;;;;;8.52;4.15;;;;;;;9.97;88.33;101165.84;4992629;28;20033;-67
2022/01/02 06:59:17;;;;;;;9.45;4.30;;;;;;;9.98;87.67;101170.13;4986630;28;20057;-67
2022/01/02 07:01:42;;;;;;;8.40;4.00;;;;;;;9.98;88.28;101167.53;4982372;28;20030;-66
2022/01/02 07:04:08;;;;;;;9.18;3.80;;;;;;;9.98;87.73;101170.13;4959463;28;20378;-69
2022/01/02 07:06:33;;;;;;;10.35;4.40;;;;;;;9.99;88.11;101153.63;4979174;28;20030;-67
2022/01/02 07:08:58;;;;;;;11.75;5.60;;;;;;;9.97;88.21;101150.28;4992680;28;20374;-66
2022/01/02 07:11:24;;;;;;;10.15;4.32;;;;;;;9.98;87.57;101156.34;4990395;28;20034;-66
2022/01/02 07:13:49;;;;;;;8.40;3.47;;;;;;;9.96;87.26;101143.47;4992613;28;20104;-66
2022/01/02 07:16:14;;;;;;;7.97;3.90;;;;;;;9.97;87.82;101149.47;4992693;28;20402;-67
2022/01/02 07:18:40;;;;;;;7.82;3.53;;;;;;;9.96;87.18;101150.41;4992489;28;20109;-67
2022/01/02 07:21:05;;;;;;;8.95;3.72;;;;;;;9.95;87.32;101147.00;4992233;28;20026;-67
2022/01/02 07:23:30;;;;;;;7.70;3.67;;;;;;;9.95;86.99;101152.19;4990178;28;20061;-67
2022/01/02 07:25:56;;;;;;;10.10;4.18;;;;;;;9.96;87.06;101146.06;4990371;28;20068;-66
2022/01/02 07:28:21;;;;;;;10.00;3.78;;;;;;;9.95;86.75;101136.63;4992224;28;20125;-67
2022/01/02 07:30:47;;;;;;;8.65;3.58;;;;;;;9.94;86.61;101129.81;4992181;28;20422;-66
2022/01/02 07:33:13;;;;;;;9.02;4.05;;;;;;;9.93;87.23;101122.97;4992078;28;20027;-67
2022/01/02 07:35:38;;;;;;;10.32;4.00;;;;;;;9.94;86.35;101093.53;4985112;28;20014;-67
2022/01/02 07:38:03;;;;;;;8.85;3.58;;;;;;;9.93;86.41;101097.06;4985977;28;20455;-67
2022/01/02 07:40:29;;;;;;;9.20;3.60;;;;;;;9.92;87.17;101092.84;4996819;28;20076;-68
2022/01/02 07:42:54;;;;;;;9.35;3.90;;;;;;;9.92;87.04;101098.03;5000360;28;20030;-67
2022/01/02 07:45:20;;;;;;;8.68;3.70;;;;;;;9.91;86.18;101104.13;4991194;28;20114;-67
2022/01/02 07:47:46;;;;;;;8.13;3.85;;;;;;;9.92;86.01;101104.94;4982152;28;20023;-67
2022/01/02 07:50:12;;;;;;;5.90;3.50;;;;;;;9.91;86.96;101114.47;4977908;28;20018;-67
2022/01/02 07:52:37;;;;;;;8.30;3.20;;;;;;;9.89;86.85;101142.28;4985876;28;20030;-67
2022/01/02 07:55:03;;;;;;;11.27;5.60;;;;;;;9.89;86.55;101149.22;4986921;28;20363;-67
2022/01/02 07:57:29;;;;;;;8.75;4.68;;;;;;;9.89;87.05;101152.63;4978321;28;20473;-68
2022/01/02 07:59:54;;;;;;;6.50;3.33;;;;;;;9.90;86.26;101159.47;4978483;28;20022;-67
2022/01/02 08:02:19;;;;;;;7.32;4.10;;;;;;;9.88;86.44;101169.13;4990693;28;20440;-68
2022/01/02 08:04:45;;;;;;;7.10;3.60;;;;;;;9.88;86.74;101158.75;4980334;28;20466;-68
2022/01/02 08:07:10;;;;;;;7.55;3.92;;;;;;;9.90;86.47;101154.28;4982280;28;20034;-67
2022/01/02 08:09:35;;;;;;;7.65;3.70;;;;;;;9.90;86.40;101143.09;4999782;28;20356;-67
2022/01/02 08:12:01;;;;;;;8.38;3.90;;;;;;;9.90;86.26;101153.47;4990850;28;20030;-67
2022/01/02 08:14:26;;;;;;;6.32;3.47;;;;;;;9.91;86.59;101149.94;4991288;28;20026;-67
2022/01/02 08:16:51;;;;;;;7.57;3.97;;;;;;;9.94;86.38;101171.28;4991145;28;20038;-67
2022/01/02 08:19:17;;;;;;;8.70;3.75;;;;;;;9.94;85.79;101160.91;4991122;28;20088;-67
2022/01/02 08:21:42;;;;;;;7.97;3.85;;;;;;;9.95;85.83;101152.19;4990397;28;20045;-69
2022/01/02 08:24:08;;;;;;;8.23;3.67;;;;;;;9.97;85.34;101171.03;4991131;28;20066;-67
2022/01/02 08:26:33;;;;;;;8.32;3.50;;;;;;;10.07;84.23;101174.59;4990144;28;20073;-68
2022/01/02 08:29:01;;;;;;;7.10;3.67;;;;;;;10.11;84.11;101178.63;4984888;28;20064;-67
2022/01/02 08:31:31;;;;;;;5.88;3.78;;;;;;;10.13;83.92;101159.53;4990921;28;20022;-68
2022/01/02 08:33:57;;;;;;;8.30;3.83;;;;;;;10.10;84.22;101140.69;4973194;28;20386;-68
2022/01/02 08:36:23;;;;;;;9.48;3.78;;;;;;;10.04;85.02;101151.53;4990945;28;20112;-68
2022/01/02 08:39:23;;;;;;;;;;;;;;;;;;;;;
2022/01/02 08:42:25;;;;;;;6.78;3.42;;;;;;;9.97;85.10;101145.13;4968165;28;20473;-80
2022/01/02 08:45:10;;;;;;;5.00;3.22;;;;;;;10.05;84.29;101163.53;4967507;28;20035;-77
2022/01/02 08:47:57;;;;;;;;;;;;;;;;;;;;;
2022/01/02 08:50:30;;;;;;;9.45;4.18;;;;;;;9.97;84.41;101152.88;4957866;28;20031;-79
2022/01/02 08:53:11;;;;;;;6.93;3.88;;;;;;;9.93;84.26;101154.06;4962515;28;20039;-79
2022/01/02 08:55:58;;;;;;;9.32;3.85;;;;;;;9.94;84.41;101158.31;4958545;28;20086;-79
2022/01/02 08:58:42;;;;;;;9.77;5.45;;;;;;;9.94;84.04;101140.19;4965063;28;20049;-79
2022/01/02 09:01:13;;;;;;;8.90;4.30;;;;;;;9.99;84.87;101158.81;4957575;28;20387;-79
2022/01/02 09:03:48;;;;;;;6.80;4.15;;;;;;;9.92;84.10;101142.06;4962373;28;20073;-79
2022/01/02 09:06:39;;;;;;;7.63;4.00;;;;;;;10.07;84.70;101151.28;4963317;28;20034;-78
2022/01/02 09:09:14;;;;;;;8.73;4.47;;;;;;;9.93;83.61;101133.34;4977262;28;20037;-78
2022/01/02 09:12:05;;;;;;;7.03;4.25;;;;;;;9.98;84.20;101146.78;4999803;28;20043;-78
2022/01/02 09:15:16;;;;;;;8.40;4.70;;;;;;;9.97;84.04;101145.13;4928224;29;20055;-78
2022/01/02 09:17:43;;;;;;;7.82;4.32;;;;;;;9.91;84.31;101135.22;4910370;29;20051;-78
2022/01/02 09:20:21;;;;;;;7.90;4.43;;;;;;;9.95;84.63;101139.22;4936504;29;20111;-78
2022/01/02 09:23:03;;;;;;;8.05;4.50;;;;;;;9.98;83.87;101139.03;4927698;29;20055;-78
2022/01/02 09:25:59;;;;;;;;;;;;;;;;;;;;;
2022/01/02 09:29:41;;;;;;;8.30;4.95;;;;;;;10.08;84.81;101152.91;4932573;29;20112;-78
2022/01/02 09:32:24;;;;;;;9.75;5.00;;;;;;;10.09;84.47;101145.97;4891356;29;20044;-78
2022/01/02 09:41:03;;;;;;;7.50;5.00;;;;;;;10.18;83.64;101162.63;4899250;29;20094;-80
2022/01/02 09:43:59;;;;;;;;;;;;;;;;;;;;;
2022/01/02 09:47:27;;;;;;;7.45;4.90;;;;;;;10.24;83.33;101162.19;4969910;28;20041;-78
2022/01/02 09:50:18;;;;;;;8.80;5.28;;;;;;;10.44;84.03;101179.69;4953805;28;20050;-79
2022/01/02 09:52:55;;;;;;;8.05;5.55;;;;;;;10.31;83.56;101158.19;4971382;28;20082;-78
2022/01/02 09:55:51;;;;;;;;;;;;;;;;;;;;;
2022/01/02 09:58:21;;;;;;;8.50;5.60;;;;;;;10.44;82.74;101164.13;4974177;28;20300;-79
2022/01/02 10:01:30;;;;;;;;;;;;;;;;;;;;;
2022/01/02 10:04:04;;;;;;;11.30;5.90;;;;;;;10.67;83.13;101177.09;4973997;28;20038;-79
2022/01/02 10:06:58;;;;;;;12.20;6.50;;;;;;;10.64;83.26;101155.63;4972789;28;20087;-78
2022/01/02 10:09:38;;;;;;;11.10;6.00;;;;;;;10.61;82.71;101163.66;4970412;28;20049;-79
2022/01/02 10:12:25;;;;;;;10.10;6.35;;;;;;;10.69;82.22;101151.88;4969380;28;20074;-78
2022/01/02 10:15:28;;;;;;;11.27;6.22;;;;;;;10.87;81.61;101166.03;4971795;28;20034;-78
2022/01/02 10:21:32;;;;;;;8.50;5.60;;;;;;;10.89;80.94;101174.50;4973706;28;20037;-79
2022/01/02 10:24:27;;;;;;;10.63;5.80;;;;;;;10.87;81.67;101155.63;4971680;28;20110;-78
2022/01/02 10:27:17;;;;;;;10.07;5.72;;;;;;;10.88;82.08;101162.47;4979125;28;20039;-78
2022/01/02 10:30:11;;;;;;;11.18;5.35;;;;;;;10.98;80.50;101184.19;4954033;28;20081;-78
2022/01/02 10:33:01;;;;;;;9.82;5.43;;;;;;;10.89;81.08;101148.56;4936635;28;20089;-78
2022/01/02 10:35:40;;;;;;;10.73;5.30;;;;;;;10.97;81.61;101155.75;4972555;28;20031;-79
2022/01/02 10:38:27;;;;;;;;;;;;;;;;;;;;;
2022/01/02 10:41:12;;;;;;;13.90;5.50;;;;;;;10.90;81.44;101129.47;4970454;28;20057;-79
2022/01/02 10:43:47;;;;;;;9.70;5.80;;;;;;;10.98;80.54;101136.63;4971262;28;20046;-81
2022/01/02 10:46:34;;;;;;;10.65;5.55;;;;;;;10.97;81.21;101135.81;4958919;28;20508;-79
2022/01/02 10:49:08;;;;;;;11.40;5.15;;;;;;;11.07;80.84;101149.75;4965953;28;20238;-79
2022/01/02 10:54:51;;;;;;;11.13;5.13;;;;;;;11.20;80.53;101139.19;4955020;28;20109;-79
2022/01/02 10:57:30;;;;;;;9.40;5.40;;;;;;;11.07;81.23;101133.34;4955339;28;20038;-78
2022/01/02 11:00:01;;;;;;;9.57;4.75;;;;;;;11.22;80.30;101160.66;4971965;28;20494;-79
2022/01/02 11:02:33;;;;;;;10.00;5.18;;;;;;;11.11;81.01;101142.50;4970011;28;20043;-78
2022/01/02 11:08:53;;;;;;;10.55;5.00;;;;;;;11.16;80.68;101130.81;4968842;28;20035;-79
2022/01/02 11:11:14;;;;;;;12.65;4.60;;;;;;;11.20;80.90;101130.59;4960608;28;20085;-79
2022/01/02 11:13:45;;;;;;;11.32;5.50;;;;;;;11.33;81.93;101136.44;4961979;28;20038;-79
2022/01/02 11:16:11;;;;;;;8.98;4.60;;;;;;;11.39;81.11;101151.53;4970935;28;20046;-79
2022/01/02 11:18:45;;;;;;;9.35;4.78;;;;;;;11.34;81.20;101132.91;4970628;28;20570;-79
2022/01/02 11:21:22;;;;;;;9.40;4.63;;;;;;;11.33;80.76;101141.66;4955907;28;20125;-80
2022/01/02 11:24:38;;;;;;;10.02;4.45;;;;;;;11.40;80.83;101140.19;4986352;28;20057;-79
2022/01/02 11:27:53;;;;;;;11.35;5.03;;;;;;;11.44;80.39;101126.03;4956235;28;20137;-79
2022/01/02 11:30:34;;;;;;;9.63;4.75;;;;;;;11.59;80.55;101153.38;4962046;28;20083;-79
2022/01/02 11:33:34;;;;;;;14.38;5.30;;;;;;;11.48;80.04;101143.03;4952165;28;20107;-79
2022/01/02 11:36:23;;;;;;;9.35;4.60;;;;;;;11.61;80.14;101174.84;4962326;28;20030;-79
2022/01/02 11:39:02;;;;;;;8.68;4.60;;;;;;;11.61;79.81;101172.25;4962797;28;20114;-79
2022/01/02 11:41:54;;;;;;;9.60;4.80;;;;;;;11.53;80.79;101153.06;4977781;28;20058;-79
2022/01/02 11:44:49;;;;;;;10.57;4.68;;;;;;;11.57;79.81;101173.44;4960186;28;20403;-79
2022/01/02 11:47:42;;;;;;;11.68;4.38;;;;;;;11.51;80.52;101150.56;4953773;28;20420;-79
2022/01/02 11:50:50;;;;;;;9.75;4.50;;;;;;;11.57;80.37;101159.63;4983031;28;20141;-79
2022/01/02 11:53:41;;;;;;;10.52;4.68;;;;;;;11.48;80.42;101161.22;4943619;28;20038;-79
2022/01/02 11:56:40;;;;;;;10.27;4.68;;;;;;;11.52;80.36;101151.38;4968295;28;20064;-79
2022/01/02 11:59:28;;;;;;;;;;;;;;;;;;;;;
2022/01/02 12:02:15;;;;;;;11.68;5.07;;;;;;;11.58;80.29;101156.91;4968113;28;20026;-79
2022/01/02 12:05:21;;;;;;;11.15;4.75;;;;;;;11.62;80.89;101166.09;4982717;28;20069;-79
2022/01/02 12:08:00;;;;;;;9.30;4.70;;;;;;;11.49;80.16;101142.06;4955835;28;20504;-79
2022/01/02 12:10:44;;;;;;;;;;;;;;;;;;;;;
2022/01/02 12:13:18;;;;;;;10.88;4.90;;;;;;;11.57;80.34;101144.88;4966068;28;20046;-79
2022/01/02 12:16:00;;;;;;;9.98;5.05;;;;;;;11.65;80.50;101162.44;4973550;28;20502;-80
2022/01/02 12:19:00;;;;;;;10.60;5.22;;;;;;;11.50;79.95;101133.31;4951928;28;20582;-79
2022/01/02 12:21:35;;;;;;;10.13;4.70;;;;;;;11.50;80.01;101138.53;4970632;28;20030;-79
2022/01/02 12:24:15;;;;;;;10.75;4.88;;;;;;;11.52;79.63;101130.59;4968585;28;20041;-79
2022/01/02 12:26:46;;;;;;;9.05;4.85;;;;;;;11.53;79.72;101135.69;4970695;28;20023;-79
2022/01/02 12:29:22;;;;;;;10.75;4.78;;;;;;;11.54;79.61;101124.34;4968828;28;20043;-79
2022/01/02 12:31:49;;;;;;;11.65;4.85;;;;;;;11.65;79.91;101158.06;4972175;28;20403;-79
2022/01/02 12:34:32;;;;;;;11.68;4.97;;;;;;;11.67;79.11;101142.34;4937961;28;20045;-79
2022/01/02 12:37:06;;;;;;;8.80;4.78;;;;;;;11.61;79.35;101122.91;4963188;28;20070;-79
2022/01/02 12:39:49;;;;;;;10.05;4.57;;;;;;;11.58;79.19;101120.53;4970142;28;20108;-79
2022/01/02 12:42:38;;;;;;;10.90;4.30;;;;;;;11.59;79.10;101122.22;4941109;28;20050;-79
2022/01/02 12:45:07;;;;;;;10.93;4.28;;;;;;;11.62;79.88;101121.94;4953269;28;20137;-79
2022/01/02 12:47:38;;;;;;;9.25;4.13;;;;;;;11.66;79.96;101132.91;4953472;28;20486;-79
2022/01/02 12:50:11;;;;;;;9.88;4.32;;;;;;;11.59;79.67;101117.00;4970799;28;20031;-79
2022/01/02 12:53:10;;;;;;;9.05;4.20;;;;;;;11.59;79.09;101111.81;4956616;28;20053;-79
2022/01/02 12:55:39;;;;;;;9.80;4.28;;;;;;;11.59;79.53;101116.19;4923536;29;20088;-79
2022/01/02 12:58:14;;;;;;;11.23;3.90;;;;;;;11.59;79.49;101121.38;4929335;28;20044;-79
2022/01/02 13:00:46;;;;;;;9.88;4.40;;;;;;;11.68;80.06;101129.22;4971067;28;20397;-80
2022/01/02 13:03:28;;;;;;;10.57;4.25;;;;;;;11.59;79.02;101111.81;4969252;28;20035;-79
2022/01/02 13:06:06;;;;;;;9.30;4.05;;;;;;;11.61;78.88;101135.06;4970332;28;20372;-80
2022/01/02 13:08:37;;;;;;;;;;;;;;;11.85;80.51;101145.25;4951826;28;20167;-79
2022/01/02 13:11:18;;;;;;;10.63;3.92;;;;;;;11.74;79.75;101129.69;4951775;28;19961;-79
2022/01/02 13:14:05;;;;;;;10.13;4.10;;;;;;;11.79;79.59;101128.38;4952795;28;20035;-79
2022/01/02 13:16:36;;;;;;;10.02;3.65;;;;;;;11.77;78.91;101119.06;4957757;28;20039;-79
2022/01/02 13:19:09;;;;;;;9.57;3.50;;;;;;;11.88;78.28;101140.66;4953191;28;20054;-79
2022/01/02 13:21:37;;;;;;;6.97;3.20;;;;;;;11.83;78.61;101113.38;4971527;28;20142;-79
2022/01/02 13:24:26;;;;;;;12.05;3.78;;;;;;;12.00;78.79;101136.22;4953184;28;20042;-79
2022/01/02 13:27:09;;;;;;;8.93;3.65;;;;;;;11.89;78.54;101123.28;4960293;28;20054;-79
2022/01/02 13:29:42;;;;;;;11.57;3.70;;;;;;;11.83;77.69;101123.78;4953453;28;20138;-80
2022/01/02 13:32:18;;;;;;;9.27;3.42;;;;;;;11.80;78.02;101122.22;4951949;28;20156;-80
2022/01/02 13:34:59;;;;;;;11.13;3.53;;;;;;;11.79;79.06;101133.56;4970273;28;20081;-79
2022/01/02 13:37:45;;;;;;;11.95;3.50;;;;;;;11.81;78.69;101141.22;4967899;28;20446;-79
2022/01/02 13:40:28;;;;;;;10.45;3.20;;;;;;;11.89;78.65;101154.47;4975891;28;20050;-79
2022/01/02 13:42:58;;;;;;;9.45;3.58;;;;;;;11.86;78.09;101141.72;4967467;28;20045;-79
2022/01/02 13:45:33;;;;;;;10.77;3.15;;;;;;;11.91;78.22;101162.94;4971321;28;20119;-79
2022/01/02 13:48:15;;;;;;;9.85;2.88;;;;;;;11.78;78.58;101136.28;4979317;28;20042;-79
2022/01/02 13:50:51;;;;;;;10.63;3.25;;;;;;;11.74;77.91;101140.91;4967662;28;20038;-79
2022/01/02 13:53:16;;;;;;;8.93;3.35;;;;;;;11.88;77.94;101173.63;4974162;28;20034;-79
2022/01/02 13:55:52;;;;;;;10.43;3.60;;;;;;;11.73;78.49;101148.81;4973831;28;20430;-79
2022/01/02 13:58:21;;;;;;;9.18;3.35;;;;;;;11.84;77.98;101169.59;4972764;28;20095;-79
2022/01/02 14:01:20;;;;;;;10.15;3.88;;;;;;;11.87;78.47;101172.78;4970618;28;20042;-79